createdAt,value
2023-02-19T00:01:31.305Z,101002.13
2023-02-19T00:04:02.785Z,101004.19
2023-02-19T00:06:32.488Z,100995.44
2023-02-19T00:09:00.360Z,100982.47
2023-02-19T00:11:30.304Z,100979.56
2023-02-19T00:13:59.751Z,100981.16
2023-02-19T00:16:28.683Z,100964.47
2023-02-19T00:18:57.751Z,100973.66
2023-02-19T00:21:27.314Z,100967.69
2023-02-19T00:23:58.537Z,100988.53
2023-02-19T00:26:26.126Z,100980.22
2023-02-19T00:28:55.852Z,100985.63
2023-02-19T00:31:25.532Z,100984.75
2023-02-19T00:33:55.406Z,100979.56
2023-02-19T00:36:23.994Z,100975.00
2023-02-19T00:38:53.191Z,100965.56
2023-02-19T00:41:22.865Z,100974.97
2023-02-19T00:43:52.376Z,100966.72
2023-02-19T00:46:22.429Z,100969.25
2023-02-19T00:48:50.251Z,100966.47
2023-02-19T00:51:17.887Z,100963.19
2023-02-19T00:53:45.754Z,100966.97
2023-02-19T00:56:14.677Z,100963.44
2023-02-19T00:58:42.589Z,100962.19
2023-02-19T01:01:10.931Z,100957.91
2023-02-19T01:03:39.346Z,100963.13
2023-02-19T01:06:09.158Z,100956.06
2023-02-19T01:08:37.284Z,100944.34
2023-02-19T01:11:07.293Z,100945.09
2023-02-19T01:13:36.499Z,100954.38
2023-02-19T01:16:04.665Z,100953.91
2023-02-19T01:18:33.135Z,100952.59
2023-02-19T01:21:00.624Z,100942.88
2023-02-19T01:23:28.136Z,100926.75
2023-02-19T01:25:55.543Z,100924.09
2023-02-19T01:28:23.332Z,100928.44
2023-02-19T01:30:52.160Z,100924.13
2023-02-19T01:33:19.721Z,100914.22
2023-02-19T01:35:47.209Z,100911.81
2023-02-19T01:38:14.695Z,100915.56
2023-02-19T01:40:42.091Z,100920.28
2023-02-19T01:43:16.802Z,100919.25
2023-02-19T01:45:46.105Z,100921.94
2023-02-19T01:48:18.330Z,100913.38
2023-02-19T01:50:50.831Z,100908.44
2023-02-19T01:53:23.023Z,100905.19
2023-02-19T01:55:54.868Z,100904.03
2023-02-19T01:58:23.612Z,100894.56
2023-02-19T02:00:51.840Z,100900.41
2023-02-19T02:03:21.649Z,100894.44
2023-02-19T02:05:56.920Z,100884.94
2023-02-19T02:08:42.936Z,100884.13
2023-02-19T02:11:10.825Z,100879.47
2023-02-19T02:13:40.314Z,100879.34
2023-02-19T02:16:18.412Z,100882.91
2023-02-19T02:19:00.168Z,100893.97
2023-02-19T02:21:47.050Z,100886.19
2023-02-19T02:24:36.793Z,100887.50
2023-02-19T02:27:29.020Z,100898.22
2023-02-19T02:30:11.571Z,100887.84
2023-02-19T02:32:53.229Z,100878.31
2023-02-19T02:35:24.385Z,100888.75
2023-02-19T02:37:54.432Z,100888.53
2023-02-19T02:40:21.962Z,100888.97
2023-02-19T02:42:49.429Z,100883.38
2023-02-19T02:45:36.034Z,100881.09
2023-02-19T02:48:19.241Z,100884.13
2023-02-19T02:50:51.341Z,100885.22
2023-02-19T02:53:39.697Z,100882.94
2023-02-19T02:56:07.876Z,100883.25
2023-02-19T02:58:36.098Z,100884.38
2023-02-19T03:01:27.242Z,100891.50
2023-02-19T03:04:02.246Z,100896.31
2023-02-19T03:06:32.773Z,100894.53
2023-02-19T03:09:06.165Z,100894.50
2023-02-19T03:11:54.592Z,100902.78
2023-02-19T03:14:43.594Z,100902.44
2023-02-19T03:17:36.935Z,100904.56
2023-02-19T03:20:09.963Z,100904.09
2023-02-19T03:22:39.355Z,100898.59
2023-02-19T03:25:29.180Z,100905.75
2023-02-19T03:27:59.313Z,100921.00
2023-02-19T03:30:32.205Z,100921.22
2023-02-19T03:33:03.262Z,100916.09
2023-02-19T03:35:34.085Z,100920.19
2023-02-19T03:38:07.687Z,100913.38
2023-02-19T03:40:41.459Z,100925.97
2023-02-19T03:43:18.843Z,100929.13
2023-02-19T03:45:54.431Z,100928.13
2023-02-19T03:48:35.345Z,100931.94
2023-02-19T03:51:13.934Z,100929.31
2023-02-19T03:53:50.515Z,100946.22
2023-02-19T03:56:23.663Z,100934.16
2023-02-19T03:58:57.422Z,100940.38
2023-02-19T04:01:31.248Z,100941.38
2023-02-19T04:04:09.048Z,100930.03
2023-02-19T04:06:39.894Z,100950.63
2023-02-19T04:09:10.142Z,100945.66
2023-02-19T04:11:38.525Z,100952.16
2023-02-19T04:14:10.066Z,100957.78
2023-02-19T04:16:41.836Z,100959.00
2023-02-19T04:19:14.075Z,100955.53
2023-02-19T04:21:43.072Z,100954.47
2023-02-19T04:24:15.268Z,100958.16
2023-02-19T04:26:44.177Z,100955.72
2023-02-19T04:29:11.884Z,100967.91
2023-02-19T04:31:39.707Z,100972.06
2023-02-19T04:34:07.244Z,100966.97
2023-02-19T04:36:36.413Z,100973.34
2023-02-19T04:39:03.873Z,100974.94
2023-02-19T04:41:31.516Z,100973.47
2023-02-19T04:43:58.945Z,100977.81
2023-02-19T04:46:26.560Z,100976.00
2023-02-19T04:48:53.975Z,100973.06
2023-02-19T04:51:21.401Z,100985.13
2023-02-19T04:53:50.196Z,100988.13
2023-02-19T04:56:18.497Z,100997.78
2023-02-19T04:58:46.404Z,100988.25
2023-02-19T05:01:14.588Z,100992.50
2023-02-19T05:03:42.237Z,101001.91
2023-02-19T05:06:12.194Z,101000.59
2023-02-19T05:08:40.087Z,100991.09
2023-02-19T05:11:11.238Z,100988.47
2023-02-19T05:13:40.296Z,101003.81
2023-02-19T05:16:10.444Z,100998.16
2023-02-19T05:18:37.956Z,100993.41
2023-02-19T05:21:05.891Z,101000.19
2023-02-19T05:23:33.480Z,100985.66
2023-02-19T05:26:04.932Z,100992.78
2023-02-19T05:28:33.776Z,100992.31
2023-02-19T05:31:05.773Z,100994.31
2023-02-19T05:33:33.690Z,100993.13
2023-02-19T05:36:05.117Z,100991.47
2023-02-19T05:38:32.581Z,100989.91
2023-02-19T05:41:09.336Z,100999.91
2023-02-19T05:43:38.630Z,100997.66
2023-02-19T05:46:06.357Z,100998.13
2023-02-19T05:48:33.923Z,100995.16
2023-02-19T05:51:05.155Z,100998.81
2023-02-19T05:53:33.136Z,101005.91
2023-02-19T05:56:00.961Z,101004.19
2023-02-19T05:58:28.713Z,101007.78
2023-02-19T06:00:57.525Z,101010.38
2023-02-19T06:03:24.965Z,100995.44
2023-02-19T06:05:52.406Z,101000.66
2023-02-19T06:08:19.833Z,101003.06
2023-02-19T06:10:47.232Z,101004.03
2023-02-19T06:13:16.271Z,101006.78
2023-02-19T06:15:45.251Z,100989.22
2023-02-19T06:18:14.016Z,100978.41
2023-02-19T06:20:41.433Z,100983.63
2023-02-19T06:23:08.844Z,100987.34
2023-02-19T06:25:36.252Z,101000.16
2023-02-19T06:28:03.733Z,100998.41
2023-02-19T06:30:31.240Z,101011.78
2023-02-19T06:32:58.747Z,101018.84
2023-02-19T06:35:27.524Z,101022.41
2023-02-19T06:37:54.956Z,101043.16
2023-02-19T06:40:22.368Z,101049.78
2023-02-19T06:42:49.775Z,101052.69
2023-02-19T06:45:17.186Z,101062.44
2023-02-19T06:47:44.610Z,101065.97
2023-02-19T06:50:12.067Z,101075.44
2023-02-19T06:52:40.806Z,101069.53
2023-02-19T06:55:08.400Z,101076.06
2023-02-19T06:57:35.808Z,101075.81
2023-02-19T07:00:04.595Z,101078.56
2023-02-19T07:02:32.095Z,101083.81
2023-02-19T07:04:59.524Z,101091.22
2023-02-19T07:07:27.048Z,101089.00
2023-02-19T07:09:55.852Z,101094.53
2023-02-19T07:12:23.263Z,101090.28
2023-02-19T07:14:50.667Z,101095.97
2023-02-19T07:17:18.145Z,101105.06
2023-02-19T07:19:45.551Z,101105.34
2023-02-19T07:22:12.992Z,101107.50
2023-02-19T07:24:40.426Z,101110.47
2023-02-19T07:27:09.186Z,101120.00
2023-02-19T07:29:36.607Z,101118.69
2023-02-19T07:32:04.432Z,101112.81
2023-02-19T07:34:31.956Z,101127.06
2023-02-19T07:36:59.520Z,101125.22
2023-02-19T07:39:27.092Z,101142.38
2023-02-19T07:41:54.655Z,101138.81
2023-02-19T07:44:23.421Z,101134.53
2023-02-19T07:46:50.827Z,101146.25
2023-02-19T07:49:18.520Z,101148.69
2023-02-19T07:51:45.968Z,101153.91
2023-02-19T07:54:13.602Z,101167.09
2023-02-19T07:56:41.166Z,101167.84
2023-02-19T07:59:08.787Z,101166.97
2023-02-19T08:01:55.207Z,101175.94
2023-02-19T08:04:22.797Z,101180.72
2023-02-19T08:06:50.254Z,101186.75
2023-02-19T08:09:17.672Z,101198.47
2023-02-19T08:12:02.738Z,101205.06
2023-02-19T08:14:30.513Z,101211.53
2023-02-19T08:16:59.351Z,101197.56
2023-02-19T08:19:26.841Z,101201.25
2023-02-19T08:21:54.499Z,101223.50
2023-02-19T08:24:21.942Z,101233.50
2023-02-19T08:26:49.477Z,101237.25
2023-02-19T08:29:17.106Z,101251.06
2023-02-19T08:31:44.851Z,101250.81
2023-02-19T08:34:13.697Z,101260.47
2023-02-19T08:36:41.196Z,101257.25
2023-02-19T08:39:08.673Z,101261.97
2023-02-19T08:41:36.143Z,101277.50
2023-02-19T08:44:03.579Z,101260.34
2023-02-19T08:46:33.019Z,101272.59
2023-02-19T08:49:01.512Z,101269.44
2023-02-19T08:51:30.332Z,101276.31
2023-02-19T08:53:57.734Z,101278.28
2023-02-19T08:56:25.358Z,101283.75
2023-02-19T08:58:52.808Z,101296.25
2023-02-19T09:01:20.246Z,101295.72
2023-02-19T09:03:47.786Z,101297.59
2023-02-19T09:06:17.710Z,101308.88
2023-02-19T09:08:46.976Z,101306.94
2023-02-19T09:11:15.226Z,101307.06
2023-02-19T09:13:43.301Z,101312.22
2023-02-19T09:16:11.138Z,101313.16
2023-02-19T09:18:38.551Z,101314.50
2023-02-19T09:21:07.400Z,101314.81
2023-02-19T09:23:35.968Z,101320.88
2023-02-19T09:26:08.567Z,101319.00
2023-02-19T09:28:37.196Z,101322.75
2023-02-19T09:31:05.985Z,101324.97
2023-02-19T09:33:33.685Z,101330.25
2023-02-19T09:36:01.262Z,101329.84
2023-02-19T09:38:31.065Z,101341.97
2023-02-19T09:41:00.134Z,101336.38
2023-02-19T09:43:30.104Z,101334.22
2023-02-19T09:46:04.122Z,101341.34
2023-02-19T09:48:32.001Z,101343.00
2023-02-19T09:51:01.691Z,101355.81
2023-02-19T09:53:40.185Z,101351.31
2023-02-19T09:56:08.742Z,101355.19
2023-02-19T09:58:44.829Z,101364.53
2023-02-19T10:01:13.755Z,101368.56
2023-02-19T10:03:44.810Z,101368.81
2023-02-19T10:06:19.042Z,101365.75
2023-02-19T10:08:46.802Z,101368.97
2023-02-19T10:11:15.591Z,101369.19
2023-02-19T10:13:48.827Z,101376.09
2023-02-19T10:16:20.262Z,101380.53
2023-02-19T10:18:48.281Z,101385.19
2023-02-19T10:21:19.990Z,101397.44
2023-02-19T10:23:50.413Z,101398.72
2023-02-19T10:26:18.116Z,101413.84
2023-02-19T10:28:46.940Z,101413.84
2023-02-19T10:31:20.539Z,101413.59
2023-02-19T10:33:53.374Z,101419.53
2023-02-19T10:36:33.161Z,101423.53
2023-02-19T10:39:02.950Z,101423.53
2023-02-19T10:41:31.678Z,101432.31
2023-02-19T10:44:07.071Z,101433.81
2023-02-19T10:46:38.114Z,101429.59
2023-02-19T10:49:16.247Z,101444.03
2023-02-19T10:51:43.824Z,101441.00
2023-02-19T10:54:19.716Z,101437.69
2023-02-19T10:56:47.639Z,101439.91
2023-02-19T10:59:24.635Z,101449.16
2023-02-19T11:01:57.380Z,101444.56
2023-02-19T11:04:25.981Z,101463.94
2023-02-19T11:06:53.716Z,101463.31
2023-02-19T11:09:27.916Z,101471.25
2023-02-19T11:11:57.406Z,101477.56
2023-02-19T11:14:28.891Z,101482.47
2023-02-19T11:16:58.192Z,101482.16
2023-02-19T11:19:32.871Z,101488.88
2023-02-19T11:22:02.248Z,101491.97
2023-02-19T11:24:35.259Z,101489.75
2023-02-19T11:27:05.458Z,101495.06
2023-02-19T11:29:35.599Z,101494.97
2023-02-19T11:32:26.116Z,101498.78
2023-02-19T11:34:54.024Z,101492.19
2023-02-19T11:37:22.496Z,101494.34
2023-02-19T11:39:52.142Z,101513.41
2023-02-19T11:42:31.092Z,101517.16
2023-02-19T11:45:13.932Z,101515.78
2023-02-19T11:48:26.037Z,101513.56
2023-02-19T11:51:02.914Z,101501.13
2023-02-19T11:53:33.363Z,101499.31
2023-02-19T11:56:16.923Z,101501.66
2023-02-19T11:59:00.942Z,101499.81
2023-02-19T12:01:47.015Z,101491.97
2023-02-19T12:04:32.697Z,101508.94
2023-02-19T12:07:12.515Z,101511.72
2023-02-19T12:09:54.358Z,101517.59
2023-02-19T12:12:37.656Z,101532.94
2023-02-19T12:15:25.802Z,101526.84
2023-02-19T12:18:16.062Z,101526.03
2023-02-19T12:20:52.250Z,101523.16
2023-02-19T12:23:49.602Z,101531.09
2023-02-19T12:26:24.885Z,101532.63
2023-02-19T12:29:25.695Z,101536.88
2023-02-19T12:32:09.895Z,101531.50
2023-02-19T12:35:09.767Z,101541.75
2023-02-19T12:37:45.428Z,101549.63
2023-02-19T12:40:42.894Z,101552.84
2023-02-19T12:43:18.751Z,101544.91
2023-02-19T12:45:52.233Z,101548.16
2023-02-19T12:48:27.726Z,101560.00
2023-02-19T12:51:00.283Z,101548.28
2023-02-19T12:53:38.759Z,101552.63
2023-02-19T12:56:14.318Z,101552.19
2023-02-19T12:58:46.771Z,101558.09
2023-02-19T13:01:20.631Z,101546.81
2023-02-19T13:03:55.036Z,101559.69
2023-02-19T13:06:34.370Z,101566.81
2023-02-19T13:09:07.482Z,101564.06
2023-02-19T13:11:39.509Z,101576.28
2023-02-19T13:14:15.117Z,101569.41
2023-02-19T13:16:46.752Z,101580.59
2023-02-19T13:19:15.150Z,101583.69
2023-02-19T13:22:05.764Z,101577.81
2023-02-19T13:24:37.507Z,101572.31
2023-02-19T13:27:20.942Z,101575.13
2023-02-19T13:30:05.492Z,101565.06
2023-02-19T13:32:53.511Z,101564.50
2023-02-19T13:35:38.039Z,101579.03
2023-02-19T13:38:09.885Z,101588.16
2023-02-19T13:40:40.160Z,101589.44
2023-02-19T13:43:20.484Z,101580.38
2023-02-19T13:45:48.076Z,101585.13
2023-02-19T13:48:26.293Z,101583.69
2023-02-19T13:51:47.669Z,101592.44
2023-02-19T13:54:22.504Z,101590.06
2023-02-19T13:56:50.488Z,101594.78
2023-02-19T13:59:25.837Z,101593.19
2023-02-19T14:02:27.395Z,101595.84
2023-02-19T14:04:57.121Z,101601.59
2023-02-19T14:07:54.455Z,101616.00
2023-02-19T14:11:02.098Z,101620.06
2023-02-19T14:13:56.370Z,101633.16
2023-02-19T14:16:32.676Z,101623.16
2023-02-19T14:19:00.129Z,101622.84
2023-02-19T14:21:36.545Z,101627.34
2023-02-19T14:24:06.440Z,101622.41
2023-02-19T14:26:35.455Z,101626.53
2023-02-19T14:29:03.877Z,101624.03
2023-02-19T14:31:33.001Z,101612.16
2023-02-19T14:34:03.517Z,101621.97
2023-02-19T14:36:36.454Z,101621.78
2023-02-19T14:39:11.511Z,101627.41
2023-02-19T14:41:41.872Z,101623.06
2023-02-19T14:44:17.810Z,101628.97
2023-02-19T14:46:52.847Z,101632.88
2023-02-19T14:49:28.450Z,101634.66
2023-02-19T14:52:00.322Z,101643.91
2023-02-19T14:54:41.057Z,101646.84
2023-02-19T14:57:16.703Z,101647.16
2023-02-19T14:59:54.431Z,101647.00
2023-02-19T15:02:24.043Z,101649.78
2023-02-19T15:04:51.495Z,101654.41
2023-02-19T15:07:23.811Z,101649.94
2023-02-19T15:09:57.046Z,101658.59
2023-02-19T15:12:26.382Z,101657.19
2023-02-19T15:14:57.880Z,101661.75
2023-02-19T15:17:27.904Z,101659.09
2023-02-19T15:19:56.524Z,101662.06
2023-02-19T15:22:28.214Z,101659.94
2023-02-19T15:24:57.023Z,101664.28
2023-02-19T15:27:26.453Z,101671.88
2023-02-19T15:29:53.974Z,101670.22
2023-02-19T15:32:23.247Z,101661.94
2023-02-19T15:34:57.730Z,101657.34
2023-02-19T15:37:27.666Z,101662.03
2023-02-19T15:39:57.731Z,101671.50
2023-02-19T15:42:27.814Z,101670.25
2023-02-19T15:44:59.903Z,101679.44
2023-02-19T15:47:33.941Z,101671.88
2023-02-19T15:50:08.529Z,101679.13
2023-02-19T15:52:44.749Z,101685.00
2023-02-19T15:55:29.044Z,101680.13
2023-02-19T15:58:04.190Z,101683.78
2023-02-19T16:00:37.093Z,101686.00
2023-02-19T16:03:05.795Z,101689.38
2023-02-19T16:05:39.301Z,101704.75
2023-02-19T16:08:18.399Z,101706.72
2023-02-19T16:10:58.608Z,101711.19
2023-02-19T16:13:27.432Z,101712.28
2023-02-19T16:16:01.732Z,101713.06
2023-02-19T16:18:29.419Z,101715.50
2023-02-19T16:20:57.305Z,101722.34
2023-02-19T16:23:25.474Z,101728.47
2023-02-19T16:26:01.614Z,101727.88
2023-02-19T16:28:31.543Z,101738.53
2023-02-19T16:31:00.160Z,101726.50
2023-02-19T16:33:46.136Z,101735.91
2023-02-19T16:36:23.380Z,101738.44
2023-02-19T16:39:15.463Z,101736.97
2023-02-19T16:42:12.605Z,101747.66
2023-02-19T16:44:40.049Z,101751.47
2023-02-19T16:47:16.336Z,101756.69
2023-02-19T16:49:44.222Z,101751.25
2023-02-19T16:52:15.246Z,101756.97
2023-02-19T16:54:42.659Z,101756.38
2023-02-19T16:57:11.487Z,101760.06
2023-02-19T16:59:38.902Z,101754.38
2023-02-19T17:02:09.013Z,101767.72
2023-02-19T17:04:36.505Z,101771.63
2023-02-19T17:07:04.150Z,101772.09
2023-02-19T17:09:31.658Z,101766.13
2023-02-19T17:11:59.126Z,101762.47
2023-02-19T17:14:27.943Z,101770.75
2023-02-19T17:16:55.401Z,101771.25
2023-02-19T17:19:22.888Z,101758.91
2023-02-19T17:21:50.424Z,101758.97
2023-02-19T17:24:18.358Z,101766.13
2023-02-19T17:26:45.851Z,101767.06
2023-02-19T17:29:18.015Z,101778.69
2023-02-19T17:31:46.918Z,101772.31
2023-02-19T17:34:14.458Z,101775.06
2023-02-19T17:36:43.150Z,101777.22
2023-02-19T17:39:15.135Z,101781.72
2023-02-19T17:41:44.048Z,101782.25
2023-02-19T17:44:12.130Z,101777.66
2023-02-19T17:46:40.124Z,101790.09
2023-02-19T17:49:10.916Z,101783.75
2023-02-19T17:51:38.337Z,101789.78
2023-02-19T17:54:08.234Z,101791.94
2023-02-19T17:56:35.844Z,101784.63
2023-02-19T17:59:03.444Z,101790.94
2023-02-19T18:01:30.907Z,101792.22
2023-02-19T18:03:58.377Z,101799.47
2023-02-19T18:06:27.154Z,101795.84
2023-02-19T18:08:54.710Z,101795.97
2023-02-19T18:11:24.117Z,101799.47
2023-02-19T18:13:52.539Z,101800.84
2023-02-19T18:16:20.633Z,101801.13
2023-02-19T18:18:48.077Z,101811.41
2023-02-19T18:21:15.818Z,101811.19
2023-02-19T18:23:46.053Z,101819.13
2023-02-19T18:26:13.737Z,101816.75
2023-02-19T18:28:41.173Z,101817.09
2023-02-19T18:31:09.179Z,101822.25
2023-02-19T18:33:36.824Z,101820.63
2023-02-19T18:36:04.880Z,101823.97
2023-02-19T18:38:32.345Z,101819.34
2023-02-19T18:41:01.085Z,101821.88
2023-02-19T18:43:28.607Z,101827.34
2023-02-19T18:45:56.080Z,101814.25
2023-02-19T18:48:23.702Z,101825.81
2023-02-19T18:50:51.118Z,101826.19
2023-02-19T18:53:18.541Z,101825.63
2023-02-19T18:55:45.971Z,101835.19
2023-02-19T18:58:14.701Z,101828.13
2023-02-19T19:00:42.091Z,101831.13
2023-02-19T19:03:09.556Z,101826.63
2023-02-19T19:05:37.011Z,101829.88
2023-02-19T19:08:04.957Z,101824.00
2023-02-19T19:10:32.337Z,101824.63
2023-02-19T19:12:59.816Z,101817.41
2023-02-19T19:15:28.686Z,101818.47
2023-02-19T19:17:56.207Z,101831.75
2023-02-19T19:20:24.726Z,101822.59
2023-02-19T19:22:53.133Z,101829.88
2023-02-19T19:25:21.363Z,101822.00
2023-02-19T19:27:50.520Z,101824.13
2023-02-19T19:30:19.976Z,101821.13
2023-02-19T19:32:50.302Z,101814.75
2023-02-19T19:35:17.989Z,101820.19
2023-02-19T19:37:45.658Z,101816.66
2023-02-19T19:40:13.993Z,101812.25
2023-02-19T19:42:43.020Z,101822.44
2023-02-19T19:45:12.047Z,101816.34
2023-02-19T19:47:39.489Z,101817.13
2023-02-19T19:50:08.979Z,101818.88
2023-02-19T19:52:36.428Z,101815.44
2023-02-19T19:55:04.055Z,101817.69
2023-02-19T19:57:31.483Z,101811.94
2023-02-19T19:59:58.932Z,101813.38
2023-02-19T20:02:26.531Z,101824.00
2023-02-19T20:04:53.951Z,101810.88
2023-02-19T20:07:22.752Z,101809.19
2023-02-19T20:09:50.575Z,101806.31
2023-02-19T20:12:18.815Z,101818.19
2023-02-19T20:14:47.322Z,101810.13
2023-02-19T20:17:15.416Z,101813.16
2023-02-19T20:19:42.943Z,101818.25
2023-02-19T20:22:10.355Z,101822.31
2023-02-19T20:24:39.245Z,101827.97
2023-02-19T20:27:06.696Z,101834.00
2023-02-19T20:29:35.391Z,101831.13
2023-02-19T20:32:03.763Z,101829.88
2023-02-19T20:34:31.805Z,101833.66
2023-02-19T20:36:59.942Z,101835.00
2023-02-19T20:39:29.201Z,101834.22
2023-02-19T20:41:59.542Z,101834.13
2023-02-19T20:44:27.192Z,101842.44
2023-02-19T20:46:55.115Z,101842.38
2023-02-19T20:49:25.037Z,101842.13
2023-02-19T20:51:55.168Z,101841.25
2023-02-19T20:54:26.534Z,101837.72
2023-02-19T20:56:55.830Z,101839.88
2023-02-19T20:59:27.171Z,101829.78
2023-02-19T21:01:54.698Z,101833.28
2023-02-19T21:04:22.251Z,101840.41
2023-02-19T21:06:52.112Z,101842.31
2023-02-19T21:09:19.588Z,101840.94
2023-02-19T21:11:48.118Z,101840.75
2023-02-19T21:14:16.348Z,101829.47
2023-02-19T21:16:45.473Z,101830.69
2023-02-19T21:19:12.880Z,101836.59
2023-02-19T21:21:40.453Z,101825.69
2023-02-19T21:24:08.311Z,101821.50
2023-02-19T21:26:37.845Z,101810.56
2023-02-19T21:29:06.198Z,101821.09
2023-02-19T21:31:38.058Z,101810.63
2023-02-19T21:34:07.493Z,101798.72
2023-02-19T21:36:35.271Z,101805.16
2023-02-19T21:39:03.127Z,101801.06
2023-02-19T21:41:30.654Z,101800.69
2023-02-19T21:43:58.794Z,101784.72
2023-02-19T21:46:26.676Z,101784.78
2023-02-19T21:48:55.819Z,101780.31
2023-02-19T21:51:31.024Z,101775.28
2023-02-19T21:53:58.782Z,101770.09
2023-02-19T21:56:28.589Z,101774.69
2023-02-19T21:58:56.319Z,101782.13
2023-02-19T22:01:25.242Z,101776.25
2023-02-19T22:03:52.787Z,101773.72
2023-02-19T22:06:22.574Z,101769.09
2023-02-19T22:08:51.618Z,101766.00
2023-02-19T22:11:19.261Z,101759.56
2023-02-19T22:13:47.070Z,101760.97
2023-02-19T22:16:15.195Z,101756.97
2023-02-19T22:18:47.357Z,101752.22
2023-02-19T22:21:14.992Z,101754.00
2023-02-19T22:23:46.278Z,101741.47
2023-02-19T22:26:24.284Z,101749.28
2023-02-19T22:28:52.380Z,101745.44
2023-02-19T22:31:22.318Z,101743.72
2023-02-19T22:33:50.116Z,101744.38
2023-02-19T22:36:19.625Z,101745.03
2023-02-19T22:38:47.563Z,101742.25
2023-02-19T22:41:15.595Z,101752.88
2023-02-19T22:43:44.773Z,101748.56
2023-02-19T22:46:16.422Z,101757.69
2023-02-19T22:48:44.037Z,101759.59
2023-02-19T22:51:13.358Z,101770.88
2023-02-19T22:53:45.545Z,101776.28
2023-02-19T22:56:14.264Z,101782.28
2023-02-19T22:58:42.353Z,101778.72
2023-02-19T23:01:11.736Z,101774.81
2023-02-19T23:03:46.530Z,101775.72
2023-02-19T23:06:14.646Z,101765.41
2023-02-19T23:08:43.219Z,101769.78
2023-02-19T23:11:11.096Z,101779.03
2023-02-19T23:13:38.676Z,101776.28
2023-02-19T23:16:06.391Z,101775.06
2023-02-19T23:18:35.257Z,101774.31
2023-02-19T23:21:02.769Z,101783.50
2023-02-19T23:23:30.298Z,101771.56
2023-02-19T23:25:57.958Z,101769.69
2023-02-19T23:28:25.535Z,101766.19
2023-02-19T23:30:53.096Z,101765.50
2023-02-19T23:33:20.635Z,101758.13
2023-02-19T23:35:49.445Z,101748.41
2023-02-19T23:38:16.906Z,101743.06
2023-02-19T23:40:45.290Z,101748.28
2023-02-19T23:43:12.777Z,101744.25
2023-02-19T23:45:40.354Z,101741.00
2023-02-19T23:48:08.188Z,101733.56
2023-02-19T23:50:35.593Z,101742.84
2023-02-19T23:53:04.739Z,101747.22
2023-02-19T23:55:32.235Z,101736.72
2023-02-19T23:57:59.812Z,101726.22
